createdAt,value
2017-12-02T00:01:05.013Z,87.21
2017-12-02T00:02:15.579Z,87.59
2017-12-02T00:03:26.758Z,87.59
2017-12-02T00:04:36.831Z,87.02
2017-12-02T00:05:46.758Z,86.93
2017-12-02T00:06:57.272Z,87.02
2017-12-02T00:08:07.361Z,87.12
2017-12-02T00:09:17.401Z,87.4
2017-12-02T00:10:27.743Z,87.59
2017-12-02T00:11:38.049Z,87.97
2017-12-02T00:12:48.386Z,87.77
2017-12-02T00:13:58.390Z,87.68
2017-12-02T00:15:08.625Z,87.87
2017-12-02T00:16:18.621Z,87.87
2017-12-02T00:17:29.114Z,87.68
2017-12-02T00:18:39.006Z,87.97
2017-12-02T00:19:49.461Z,87.87
2017-12-02T00:20:59.380Z,87.68
2017-12-02T00:22:10.004Z,87.77
2017-12-02T00:23:20.055Z,87.68
2017-12-02T00:24:30.033Z,87.97
2017-12-02T00:25:41.001Z,87.87
2017-12-02T00:26:51.925Z,88.06
2017-12-02T00:28:02.968Z,87.68
2017-12-02T00:29:12.877Z,87.77
2017-12-02T00:30:23.678Z,88.16
2017-12-02T00:31:35.032Z,88.06
2017-12-02T00:32:45.365Z,87.68
2017-12-02T00:33:56.285Z,87.77
2017-12-02T00:35:07.048Z,88.06
2017-12-02T00:36:16.997Z,87.68
2017-12-02T00:37:27.839Z,87.77
2017-12-02T00:38:38.888Z,87.87
2017-12-02T00:40:03.903Z,88.35
2017-12-02T00:41:14.486Z,88.25
2017-12-02T00:42:25.451Z,88.25
2017-12-02T00:43:35.937Z,88.25
2017-12-02T00:44:46.199Z,88.54
2017-12-02T00:45:56.583Z,88.25
2017-12-02T00:47:06.842Z,88.54
2017-12-02T00:48:16.516Z,88.54
2017-12-02T00:49:26.795Z,88.44
2017-12-02T00:50:37.075Z,88.06
2017-12-02T00:51:47.555Z,88.25
2017-12-02T00:52:58.006Z,88.25
2017-12-02T00:54:08.283Z,88.06
2017-12-02T00:55:18.551Z,88.44
2017-12-02T00:56:28.576Z,88.44
2017-12-02T00:57:39.210Z,88.25
2017-12-02T00:58:49.593Z,88.16
2017-12-02T01:00:00.028Z,87.97
2017-12-02T01:01:10.032Z,87.97
2017-12-02T01:02:20.076Z,88.06
2017-12-02T01:03:31.099Z,88.25
2017-12-02T01:04:41.379Z,88.06
2017-12-02T01:05:51.133Z,88.63
2017-12-02T01:07:01.622Z,88.44
2017-12-02T01:08:11.881Z,88.16
2017-12-02T01:09:36.860Z,88.73
2017-12-02T01:10:47.019Z,88.35
2017-12-02T01:11:57.672Z,88.06
2017-12-02T01:13:07.692Z,87.77
2017-12-02T01:14:49.611Z,88.82
2017-12-02T01:16:00.257Z,89.11
2017-12-02T01:17:10.746Z,89.11
2017-12-02T01:18:21.206Z,87.77
2017-12-02T01:19:31.239Z,88.16
2017-12-02T01:20:41.284Z,88.25
2017-12-02T01:21:51.570Z,87.97
2017-12-02T01:23:01.869Z,88.25
2017-12-02T01:24:12.388Z,88.06
2017-12-02T01:25:22.794Z,88.16
2017-12-02T01:26:33.263Z,88.16
2017-12-02T01:27:43.569Z,87.97
2017-12-02T01:28:53.698Z,87.87
2017-12-02T01:30:03.994Z,88.06
2017-12-02T01:31:14.379Z,88.16
2017-12-02T01:32:24.656Z,88.25
2017-12-02T01:33:35.276Z,87.87
2017-12-02T01:34:45.584Z,88.16
2017-12-02T01:35:55.862Z,88.25
2017-12-02T01:37:05.688Z,88.06
2017-12-02T01:38:16.170Z,88.29
2017-12-02T01:39:26.729Z,88.01
2017-12-02T01:40:36.719Z,88.48
2017-12-02T01:41:47.189Z,88.39
2017-12-02T01:42:57.685Z,88.29
2017-12-02T01:44:07.599Z,88.48
2017-12-02T01:45:17.615Z,88.87
2017-12-02T01:46:28.338Z,88.39
2017-12-02T01:47:38.538Z,88.58
2017-12-02T01:48:48.838Z,88.29
2017-12-02T01:49:59.645Z,88.48
2017-12-02T01:51:10.310Z,88.2
2017-12-02T01:52:20.830Z,88.29
2017-12-02T01:53:30.738Z,88.1
2017-12-02T01:54:42.307Z,88.29
2017-12-02T01:55:52.255Z,88.1
2017-12-02T01:57:02.331Z,88.48
2017-12-02T01:58:12.521Z,88.29
2017-12-02T01:59:23.418Z,88.48
2017-12-02T02:00:33.690Z,88.39
2017-12-02T02:01:43.872Z,88.29
2017-12-02T02:04:19.424Z,88.39
2017-12-02T02:05:29.453Z,88.29
2017-12-02T02:06:40.154Z,88.1
2017-12-02T02:07:51.113Z,88.68
2017-12-02T02:09:00.923Z,88.1
2017-12-02T02:10:11.447Z,88.39
2017-12-02T02:11:21.804Z,88.77
2017-12-02T02:12:32.149Z,88.44
2017-12-02T02:13:42.445Z,88.29
2017-12-02T02:14:54.224Z,88.2
2017-12-02T02:16:04.310Z,88.29
2017-12-02T02:17:14.623Z,88.29
2017-12-02T02:18:24.607Z,88.1
2017-12-02T02:19:34.898Z,87.92
2017-12-02T02:20:44.895Z,88.01
2017-12-02T02:21:54.522Z,88.29
2017-12-02T02:23:04.868Z,88.77
2017-12-02T02:24:15.359Z,88.1
2017-12-02T02:25:25.879Z,88.29
2017-12-02T02:26:36.175Z,88.29
2017-12-02T02:27:47.438Z,88.39
2017-12-02T02:28:57.969Z,88.29
2017-12-02T02:30:09.095Z,88.29
2017-12-02T02:31:19.333Z,87.73
2017-12-02T02:32:29.612Z,88.29
2017-12-02T02:33:40.226Z,88.2
2017-12-02T02:34:50.383Z,88.06
2017-12-02T02:36:00.851Z,89.01
2017-12-02T02:37:11.165Z,88.63
2017-12-02T02:38:21.951Z,89.11
2017-12-02T02:39:32.606Z,89.01
2017-12-02T02:40:43.068Z,89.11
2017-12-02T02:41:53.825Z,89.11
2017-12-02T02:43:04.583Z,88.73
2017-12-02T02:44:14.984Z,88.92
2017-12-02T02:45:25.266Z,89.06
2017-12-02T02:46:35.760Z,88.73
2017-12-02T02:47:46.400Z,88.73
2017-12-02T02:48:56.425Z,88.92
2017-12-02T02:50:07.136Z,88.92
2017-12-02T02:51:17.339Z,89.01
2017-12-02T02:52:27.806Z,89.11
2017-12-02T02:53:41.358Z,89.29
2017-12-02T02:54:52.117Z,89.01
2017-12-02T02:56:02.652Z,89.29
2017-12-02T02:57:12.906Z,89.29
2017-12-02T02:58:23.176Z,89.29
2017-12-02T02:59:33.906Z,89.39
2017-12-02T03:00:44.112Z,89.48
2017-12-02T03:01:54.760Z,89.29
2017-12-02T03:03:05.226Z,89.2
2017-12-02T03:04:15.819Z,89.29
2017-12-02T03:05:26.310Z,89.39
2017-12-02T03:06:36.632Z,89.39
2017-12-02T03:07:46.892Z,89.2
2017-12-02T03:08:57.164Z,89.2
2017-12-02T03:10:07.418Z,89.29
2017-12-02T03:11:17.909Z,89.39
2017-12-02T03:12:27.941Z,89.29
2017-12-02T03:13:52.820Z,89.29
2017-12-02T03:15:04.007Z,89.29
2017-12-02T03:16:14.546Z,89.48
2017-12-02T03:17:24.594Z,89.48
2017-12-02T03:18:36.287Z,89.2
2017-12-02T03:20:01.168Z,89.29
2017-12-02T03:21:11.367Z,89.39
2017-12-02T03:22:21.352Z,89.39
2017-12-02T03:23:31.458Z,89.48
2017-12-02T03:24:41.725Z,89.67
2017-12-02T03:25:51.843Z,89.58
2017-12-02T03:27:02.111Z,89.48
2017-12-02T03:28:12.037Z,89.77
2017-12-02T03:29:22.764Z,90
2017-12-02T03:30:33.658Z,89.2
2017-12-02T03:31:44.663Z,89.25
2017-12-02T03:32:56.308Z,89.62
2017-12-02T03:34:06.866Z,90.05
2017-12-02T03:35:16.895Z,89.91
2017-12-02T03:36:27.152Z,89.91
2017-12-02T03:37:37.422Z,89.81
2017-12-02T03:38:48.041Z,89.81
2017-12-02T03:39:58.551Z,90
2017-12-02T03:41:08.612Z,89.43
2017-12-02T03:42:18.885Z,89.58
2017-12-02T03:43:29.402Z,89.77
2017-12-02T03:44:40.827Z,89.62
2017-12-02T03:45:51.038Z,89.58
2017-12-02T03:47:01.586Z,89.81
2017-12-02T03:48:11.906Z,89.62
2017-12-02T03:49:21.973Z,90.15
2017-12-02T03:50:32.818Z,89.96
2017-12-02T03:51:43.692Z,90.05
2017-12-02T03:52:54.819Z,89.96
2017-12-02T03:54:04.885Z,90.05
2017-12-02T03:55:15.562Z,89.67
2017-12-02T03:56:27.466Z,90.15
2017-12-02T03:57:37.845Z,90.34
2017-12-02T03:58:48.215Z,90.15
2017-12-02T03:59:58.535Z,90.24
2017-12-02T04:01:08.846Z,89.77
2017-12-02T04:02:19.557Z,90.24
2017-12-02T04:03:29.847Z,90.24
2017-12-02T04:04:39.988Z,90.05
2017-12-02T04:05:49.979Z,90.1
2017-12-02T04:07:00.255Z,90.1
2017-12-02T04:08:10.278Z,89.91
2017-12-02T04:09:20.491Z,90.05
2017-12-02T04:10:30.858Z,89.77
2017-12-02T04:11:41.165Z,90.19
2017-12-02T04:12:51.163Z,90.29
2017-12-02T04:14:01.153Z,90.1
2017-12-02T04:15:11.401Z,90.1
2017-12-02T04:16:21.690Z,90
2017-12-02T04:17:31.956Z,90
2017-12-02T04:18:42.220Z,90
2017-12-02T04:19:52.515Z,90.19
2017-12-02T04:21:02.522Z,89.91
2017-12-02T04:22:12.776Z,90.38
2017-12-02T04:23:23.079Z,90.24
2017-12-02T04:24:33.124Z,89.91
2017-12-02T04:25:43.699Z,89.72
2017-12-02T04:26:53.650Z,90.43
2017-12-02T04:28:04.002Z,89.77
2017-12-02T04:29:14.357Z,90.24
2017-12-02T04:30:24.711Z,90
2017-12-02T04:31:35.044Z,90
2017-12-02T04:32:45.308Z,90.38
2017-12-02T04:33:55.545Z,90.29
2017-12-02T04:35:05.702Z,90.29
2017-12-02T04:36:15.893Z,90.29
2017-12-02T04:37:26.172Z,90.38
2017-12-02T04:38:36.473Z,90.15
2017-12-02T04:39:46.891Z,90.24
2017-12-02T04:40:56.925Z,90.29
2017-12-02T04:42:07.310Z,90.19
2017-12-02T04:43:17.229Z,90.05
2017-12-02T04:44:27.534Z,90.48
2017-12-02T04:45:37.456Z,90.67
2017-12-02T04:46:47.488Z,90.34
2017-12-02T04:47:57.756Z,90.53
2017-12-02T04:49:08.013Z,90.53
2017-12-02T04:50:18.266Z,90.62
2017-12-02T04:51:28.755Z,90.43
2017-12-02T04:52:39.038Z,90.48
2017-12-02T04:53:49.295Z,90.43
2017-12-02T04:54:59.551Z,90.76
2017-12-02T04:56:09.832Z,90.81
2017-12-02T04:57:19.850Z,90.81
2017-12-02T04:58:30.144Z,90.76
2017-12-02T04:59:40.405Z,90.38
2017-12-02T05:00:50.673Z,90.62
2017-12-02T05:02:00.925Z,91.28
2017-12-02T05:03:11.415Z,91.09
2017-12-02T05:04:21.508Z,91.05
2017-12-02T05:05:31.149Z,91.24
2017-12-02T05:06:41.378Z,91.09
2017-12-02T05:07:51.370Z,91.09
2017-12-02T05:09:01.783Z,90.91
2017-12-02T05:10:11.973Z,90.86
2017-12-02T05:11:22.233Z,91.14
2017-12-02T05:12:32.638Z,91.05
2017-12-02T05:13:42.639Z,90.67
2017-12-02T05:14:52.573Z,90.76
2017-12-02T05:16:02.268Z,90.95
2017-12-02T05:17:12.658Z,90.57
2017-12-02T05:18:22.951Z,90.48
2017-12-02T05:19:33.216Z,90.86
2017-12-02T05:20:43.220Z,90.86
2017-12-02T05:21:52.951Z,90.48
2017-12-02T05:23:03.233Z,90.76
2017-12-02T05:24:13.498Z,90.38
2017-12-02T05:25:23.769Z,90.48
2017-12-02T05:26:33.950Z,90.57
2017-12-02T05:27:44.417Z,90.67
2017-12-02T05:28:55.467Z,90.48
2017-12-02T05:30:05.758Z,90.1
2017-12-02T05:31:16.015Z,90.57
2017-12-02T05:32:26.007Z,90.86
2017-12-02T05:33:35.897Z,90.38
2017-12-02T05:34:45.652Z,90.67
2017-12-02T05:35:55.961Z,90.76
2017-12-02T05:37:06.452Z,90.67
2017-12-02T05:38:16.483Z,90.67
2017-12-02T05:39:26.930Z,90.67
2017-12-02T05:40:36.975Z,90.76
2017-12-02T05:41:46.989Z,90.48
2017-12-02T05:42:57.236Z,90.57
2017-12-02T05:44:07.493Z,90.38
2017-12-02T05:45:17.740Z,90.67
2017-12-02T05:46:28.041Z,90.57
2017-12-02T05:47:38.084Z,90.57
2017-12-02T05:48:48.352Z,90.67
2017-12-02T05:49:58.658Z,90.57
2017-12-02T05:51:09.157Z,90.48
2017-12-02T05:52:19.400Z,90.57
2017-12-02T05:53:29.714Z,90.57
2017-12-02T05:54:40.260Z,91.14
2017-12-02T05:55:50.642Z,90.67
2017-12-02T05:57:00.886Z,91.14
2017-12-02T05:58:11.371Z,91.24
2017-12-02T05:59:21.266Z,91.14
2017-12-02T06:00:31.534Z,90.95
2017-12-02T06:01:41.850Z,91.05
2017-12-02T06:02:52.264Z,91.14
2017-12-02T06:04:02.524Z,90.95
2017-12-02T06:05:12.860Z,90.86
2017-12-02T06:06:23.099Z,91.05
2017-12-02T06:07:33.350Z,91.24
2017-12-02T06:08:43.872Z,91.14
2017-12-02T06:09:53.854Z,91.24
2017-12-02T06:11:03.858Z,90.76
2017-12-02T06:12:13.882Z,90.95
2017-12-02T06:13:23.616Z,91.05
2017-12-02T06:14:34.093Z,91.33
2017-12-02T06:15:44.151Z,90.57
2017-12-02T06:16:54.429Z,90.29
2017-12-02T06:18:04.897Z,90.48
2017-12-02T06:19:15.396Z,90.67
2017-12-02T06:20:25.920Z,90.57
2017-12-02T06:21:36.201Z,90.76
2017-12-02T06:22:46.739Z,90.57
2017-12-02T06:23:57.023Z,91.14
2017-12-02T06:25:07.374Z,90.95
2017-12-02T06:26:17.395Z,91.05
2017-12-02T06:27:27.679Z,91.05
2017-12-02T06:28:37.868Z,91.05
2017-12-02T06:29:48.145Z,91.14
2017-12-02T06:30:58.435Z,91.14
2017-12-02T06:32:08.795Z,90.29
2017-12-02T06:33:19.064Z,90.29
2017-12-02T06:34:28.950Z,90.29
2017-12-02T06:35:39.198Z,90.38
2017-12-02T06:36:49.456Z,90.57
2017-12-02T06:37:59.783Z,90.38
2017-12-02T06:39:10.201Z,90.38
2017-12-02T06:40:20.500Z,90.38
2017-12-02T06:41:31.042Z,90.57
2017-12-02T06:42:41.361Z,90.57
2017-12-02T06:43:51.421Z,90.48
2017-12-02T06:45:01.413Z,90.57
2017-12-02T06:46:11.689Z,90.57
2017-12-02T06:47:22.428Z,90.48
2017-12-02T06:48:32.633Z,90.29
2017-12-02T06:49:42.664Z,90.38
2017-12-02T06:50:52.958Z,90.57
2017-12-02T06:52:03.177Z,91.33
2017-12-02T06:53:13.438Z,90.67
2017-12-02T06:54:23.724Z,91.33
2017-12-02T06:55:34.011Z,90.67
2017-12-02T06:56:44.291Z,90.67
2017-12-02T06:57:54.630Z,91.33
2017-12-02T06:59:05.137Z,91.14
2017-12-02T07:00:15.237Z,90.57
2017-12-02T07:01:25.512Z,90.57
2017-12-02T07:02:35.781Z,90.57
2017-12-02T07:03:46.053Z,90.57
2017-12-02T07:04:56.362Z,90.57
2017-12-02T07:06:06.658Z,91.14
2017-12-02T07:07:16.953Z,91.05
2017-12-02T07:08:27.432Z,91.05
2017-12-02T07:09:37.444Z,90.86
2017-12-02T07:10:47.759Z,91.05
2017-12-02T07:11:57.692Z,90.95
2017-12-02T07:13:07.571Z,91.14
2017-12-02T07:14:17.583Z,91.05
2017-12-02T07:15:27.754Z,91.05
2017-12-02T07:16:38.047Z,90.95
2017-12-02T07:17:48.448Z,91.14
2017-12-02T07:18:58.172Z,91.14
2017-12-02T07:20:07.951Z,91.05
2017-12-02T07:21:18.272Z,90.95
2017-12-02T07:22:28.793Z,91.05
2017-12-02T07:23:39.136Z,91.05
2017-12-02T07:24:49.411Z,91.14
2017-12-02T07:25:59.685Z,90.86
2017-12-02T07:27:09.951Z,90.95
2017-12-02T07:28:20.202Z,90.95
2017-12-02T07:29:30.285Z,90.86
2017-12-02T07:30:40.547Z,91.05
2017-12-02T07:31:50.835Z,91
2017-12-02T07:33:01.098Z,90.95
2017-12-02T07:34:10.836Z,90.95
2017-12-02T07:35:20.850Z,91.05
2017-12-02T07:36:31.090Z,91.57
2017-12-02T07:37:41.367Z,91.61
2017-12-02T07:38:51.652Z,91.52
2017-12-02T07:40:01.947Z,91.05
2017-12-02T07:41:12.185Z,91.14
2017-12-02T07:42:22.590Z,90.86
2017-12-02T07:43:33.285Z,90.86
2017-12-02T07:44:43.744Z,90.95
2017-12-02T07:45:53.738Z,91.14
2017-12-02T07:47:04.255Z,91.05
2017-12-02T07:48:14.953Z,90.95
2017-12-02T07:49:25.397Z,91.33
2017-12-02T07:50:35.690Z,91.33
2017-12-02T07:51:45.974Z,91.14
2017-12-02T07:52:56.316Z,90.95
2017-12-02T07:54:06.656Z,91.05
2017-12-02T07:55:17.101Z,91.14
2017-12-02T07:56:27.695Z,91.33
2017-12-02T07:57:38.201Z,90.57
2017-12-02T07:58:48.720Z,90.95
2017-12-02T07:59:59.005Z,90.48
2017-12-02T08:01:09.286Z,90.38
2017-12-02T08:02:19.595Z,90.38
2017-12-02T08:03:30.010Z,90.76
2017-12-02T08:04:40.336Z,90.76
2017-12-02T08:05:51.046Z,90.48
2017-12-02T08:07:01.369Z,90.38
2017-12-02T08:08:11.644Z,90.48
2017-12-02T08:09:21.733Z,90.29
2017-12-02T08:10:32.039Z,90.38
2017-12-02T08:11:41.657Z,90.76
2017-12-02T08:12:51.919Z,90.57
2017-12-02T08:14:02.225Z,90.57
2017-12-02T08:15:12.355Z,90.67
2017-12-02T08:16:22.377Z,90.76
2017-12-02T08:17:32.795Z,90.48
2017-12-02T08:18:42.915Z,90.48
2017-12-02T08:19:53.174Z,90.95
2017-12-02T08:21:03.480Z,90.67
2017-12-02T08:22:13.755Z,90.57
2017-12-02T08:23:24.056Z,90.38
2017-12-02T08:24:34.431Z,90.76
2017-12-02T08:25:44.717Z,90.76
2017-12-02T08:26:55.081Z,90.76
2017-12-02T08:28:05.097Z,90.76
2017-12-02T08:29:15.388Z,90.29
2017-12-02T08:30:25.665Z,90.57
2017-12-02T08:31:35.804Z,90.76
2017-12-02T08:32:46.137Z,90
2017-12-02T08:33:55.840Z,90.1
2017-12-02T08:35:05.956Z,90.29
2017-12-02T08:36:16.345Z,90.19
2017-12-02T08:37:26.099Z,90.29
2017-12-02T08:38:36.431Z,90.1
2017-12-02T08:39:46.956Z,89.72
2017-12-02T08:40:57.297Z,89.81
2017-12-02T08:42:07.721Z,89.91
2017-12-02T08:43:18.049Z,89.81
2017-12-02T08:44:28.418Z,89.81
2017-12-02T08:45:38.768Z,90
2017-12-02T08:46:49.185Z,89.43
2017-12-02T08:48:00.123Z,89.43
2017-12-02T08:49:10.539Z,89.81
2017-12-02T08:50:20.456Z,89.62
2017-12-02T08:51:31.184Z,89.62
2017-12-02T08:52:42.504Z,89.39
2017-12-02T08:53:53.623Z,89.15
2017-12-02T08:55:03.911Z,89.2
2017-12-02T08:56:13.844Z,89.15
2017-12-02T08:57:23.857Z,88.96
2017-12-02T08:58:33.848Z,88.53
2017-12-02T08:59:44.179Z,88.48
2017-12-02T09:00:53.925Z,89
2017-12-02T09:02:03.953Z,89
2017-12-02T09:03:13.969Z,88.91
2017-12-02T09:04:24.261Z,88.91
2017-12-02T09:05:34.461Z,89
2017-12-02T09:07:17.947Z,89
2017-12-02T09:08:28.311Z,88.34
2017-12-02T09:09:38.060Z,88.43
2017-12-02T09:10:48.320Z,88.34
2017-12-02T09:11:58.653Z,87.96
2017-12-02T09:13:09.624Z,88.43
2017-12-02T09:14:19.978Z,88.43
2017-12-02T09:15:30.806Z,88.01
2017-12-02T09:16:40.884Z,88.1
2017-12-02T09:17:50.803Z,88.68
2017-12-02T09:19:00.548Z,88.62
2017-12-02T09:20:11.314Z,88.91
2017-12-02T09:21:21.771Z,88.81
2017-12-02T09:22:32.292Z,88.15
2017-12-02T09:23:42.656Z,88.15
2017-12-02T09:24:53.240Z,88.15
2017-12-02T09:26:03.630Z,88.53
2017-12-02T09:27:14.641Z,88.72
2017-12-02T09:28:25.012Z,88.43
2017-12-02T09:29:35.027Z,88.53
2017-12-02T09:30:45.316Z,87.87
2017-12-02T09:31:55.404Z,87.87
2017-12-02T09:33:05.765Z,88.06
2017-12-02T09:34:16.169Z,87.87
2017-12-02T09:35:26.542Z,87.68
2017-12-02T09:36:37.075Z,88.06
2017-12-02T09:37:46.732Z,87.58
2017-12-02T09:38:57.051Z,87.01
2017-12-02T09:40:07.455Z,87.11
2017-12-02T09:41:17.964Z,87.01
2017-12-02T09:42:28.490Z,86.82
2017-12-02T09:43:38.849Z,86.82
2017-12-02T09:44:49.169Z,86.82
2017-12-02T09:45:59.190Z,86.44
2017-12-02T09:47:09.244Z,86.07
2017-12-02T09:48:19.728Z,86.07
2017-12-02T09:49:30.060Z,86.44
2017-12-02T09:50:40.400Z,86.16
2017-12-02T09:51:50.705Z,86.49
2017-12-02T09:53:00.763Z,86.16
2017-12-02T09:54:10.650Z,86.49
2017-12-02T09:55:21.046Z,86.01
2017-12-02T09:56:31.559Z,85.72
2017-12-02T09:57:41.867Z,86.01
2017-12-02T09:58:52.159Z,86.11
2017-12-02T10:00:02.449Z,85.25
2017-12-02T10:01:12.445Z,85.06
2017-12-02T10:02:22.796Z,85.16
2017-12-02T10:03:32.965Z,85.06
2017-12-02T10:04:43.076Z,84.97
2017-12-02T10:05:53.507Z,85.06
2017-12-02T10:07:03.893Z,84.49
2017-12-02T10:08:14.215Z,84.16
2017-12-02T10:09:24.495Z,84.11
2017-12-02T10:10:34.809Z,84.34
2017-12-02T10:11:44.535Z,83.78
2017-12-02T10:12:54.964Z,83.39
2017-12-02T10:14:05.215Z,83.59
2017-12-02T10:15:15.585Z,83.2
2017-12-02T10:16:24.983Z,83.11
2017-12-02T10:17:35.554Z,83.49
2017-12-02T10:18:45.930Z,83.2
2017-12-02T10:19:56.272Z,83.2
2017-12-02T10:21:06.591Z,83.59
2017-12-02T10:22:16.695Z,83.87
2017-12-02T10:23:27.067Z,83.01
2017-12-02T10:24:37.361Z,83.3
2017-12-02T10:25:47.650Z,82.82
2017-12-02T10:26:57.960Z,82.64
2017-12-02T10:28:08.370Z,82.82
2017-12-02T10:29:18.640Z,82.82
2017-12-02T10:30:28.982Z,82.73
2017-12-02T10:31:39.409Z,83.11
2017-12-02T10:32:49.965Z,82.45
2017-12-02T10:34:00.295Z,81.97
2017-12-02T10:35:10.332Z,82.35
2017-12-02T10:36:20.355Z,81.87
2017-12-02T10:37:30.691Z,82.16
2017-12-02T10:38:41.060Z,82.35
2017-12-02T10:39:51.182Z,82.26
2017-12-02T10:41:01.718Z,82.26
2017-12-02T10:42:12.291Z,81.97
2017-12-02T10:43:22.618Z,81.87
2017-12-02T10:44:32.697Z,82.26
2017-12-02T10:45:42.927Z,82.16
2017-12-02T10:46:53.318Z,82.92
2017-12-02T10:48:03.914Z,83.11
2017-12-02T10:49:14.252Z,82.92
2017-12-02T10:50:24.615Z,82.16
2017-12-02T10:51:49.396Z,82.45
2017-12-02T10:52:59.690Z,82.45
2017-12-02T10:54:09.987Z,82.26
2017-12-02T10:55:20.624Z,82.64
2017-12-02T10:56:31.226Z,82.07
2017-12-02T10:57:41.151Z,82.26
2017-12-02T10:58:51.621Z,81.97
2017-12-02T11:00:01.921Z,82.35
2017-12-02T11:01:12.052Z,81.87
2017-12-02T11:02:22.604Z,81.49
2017-12-02T11:03:32.765Z,81.49
2017-12-02T11:04:42.791Z,81.4
2017-12-02T11:05:53.124Z,81.3
2017-12-02T11:07:03.441Z,81.97
2017-12-02T11:08:13.942Z,82.07
2017-12-02T11:09:24.904Z,81.97
2017-12-02T11:10:35.294Z,81.68
2017-12-02T11:11:45.301Z,81.68
2017-12-02T11:12:55.746Z,81.97
2017-12-02T11:14:06.072Z,82.54
2017-12-02T11:15:16.743Z,82.12
2017-12-02T11:16:27.099Z,81.97
2017-12-02T11:17:36.884Z,81.78
2017-12-02T11:18:47.608Z,81.97
2017-12-02T11:19:57.958Z,82.35
2017-12-02T11:21:08.022Z,82.07
2017-12-02T11:22:17.986Z,82.16
2017-12-02T11:23:28.524Z,82.16
2017-12-02T11:24:39.140Z,82.16
2017-12-02T11:25:49.459Z,81.78
2017-12-02T11:27:00.289Z,82.26
2017-12-02T11:28:10.785Z,82.35
2017-12-02T11:29:21.638Z,81.97
2017-12-02T11:30:32.576Z,81.78
2017-12-02T11:31:43.211Z,82.45
2017-12-02T11:32:53.563Z,82.26
2017-12-02T11:34:04.505Z,81.97
2017-12-02T11:35:14.874Z,81.87
2017-12-02T11:36:25.032Z,81.93
2017-12-02T11:37:35.030Z,81.87
2017-12-02T11:38:45.120Z,81.87
2017-12-02T11:39:55.852Z,81.93
2017-12-02T11:41:06.192Z,82.12
2017-12-02T11:42:16.343Z,82.03
2017-12-02T11:43:26.285Z,81.93
2017-12-02T11:44:36.660Z,82.12
2017-12-02T11:45:46.609Z,81.93
2017-12-02T11:46:56.913Z,82.12
2017-12-02T11:48:06.975Z,82.12
2017-12-02T11:49:17.323Z,81.93
2017-12-02T11:50:27.716Z,81.93
2017-12-02T11:51:38.032Z,81.74
2017-12-02T11:52:48.442Z,81.93
2017-12-02T11:53:58.548Z,81.65
2017-12-02T11:55:08.850Z,81.93
2017-12-02T11:56:19.301Z,82.03
2017-12-02T11:57:29.731Z,82.12
2017-12-02T11:58:39.782Z,81.65
2017-12-02T11:59:50.125Z,82.12
2017-12-02T12:01:00.418Z,82.12
2017-12-02T12:02:10.540Z,81.93
2017-12-02T12:03:21.127Z,81.93
2017-12-02T12:04:31.688Z,82.03
2017-12-02T12:05:41.477Z,81.55
2017-12-02T12:06:51.795Z,81.55
2017-12-02T12:08:02.205Z,81.07
2017-12-02T12:09:12.218Z,80.98
2017-12-02T12:10:22.240Z,80.6
2017-12-02T12:11:32.666Z,80.79
2017-12-02T12:12:42.976Z,80.88
2017-12-02T12:13:53.273Z,79.94
2017-12-02T12:15:03.809Z,80.03
2017-12-02T12:16:14.395Z,80.51
2017-12-02T12:17:25.127Z,80.6
2017-12-02T12:18:35.475Z,80.03
2017-12-02T12:19:46.005Z,80.22
2017-12-02T12:20:56.272Z,80.13
2017-12-02T12:22:06.278Z,79.65
2017-12-02T12:23:16.788Z,78.99
2017-12-02T12:24:26.441Z,78.89
2017-12-02T12:25:36.484Z,78.23
2017-12-02T12:26:47.160Z,78.42
2017-12-02T12:27:57.108Z,78.42
2017-12-02T12:29:07.491Z,78.61
2017-12-02T12:30:17.763Z,78.7
2017-12-02T12:31:28.275Z,78.8
2017-12-02T12:32:38.565Z,78.89
2017-12-02T12:33:49.419Z,79.27
2017-12-02T12:34:59.459Z,78.8
2017-12-02T12:36:09.775Z,78.99
2017-12-02T12:37:19.944Z,78.89
2017-12-02T12:38:30.332Z,78.7
2017-12-02T12:39:40.656Z,78.61
2017-12-02T12:40:50.769Z,78.7
2017-12-02T12:42:00.908Z,78.7
2017-12-02T12:43:11.003Z,78.51
2017-12-02T12:44:21.578Z,78.7
2017-12-02T12:45:32.024Z,78.89
2017-12-02T12:46:42.315Z,78.51
2017-12-02T12:47:52.418Z,78.7
2017-12-02T12:49:02.785Z,78.7
2017-12-02T12:50:13.391Z,78.8
2017-12-02T12:51:23.167Z,78.23
2017-12-02T12:52:33.014Z,78.13
2017-12-02T12:53:44.142Z,78.13
2017-12-02T12:54:54.414Z,78.23
2017-12-02T12:56:04.414Z,77.94
2017-12-02T12:57:13.834Z,77.66
2017-12-02T12:58:24.170Z,78.42
2017-12-02T12:59:34.490Z,78.23
2017-12-02T13:00:44.828Z,78.7
2017-12-02T13:01:54.860Z,78.23
2017-12-02T13:03:05.194Z,78.75
2017-12-02T13:04:15.577Z,78.47
2017-12-02T13:05:25.944Z,78.51
2017-12-02T13:06:36.246Z,78.61
2017-12-02T13:07:46.566Z,78.61
2017-12-02T13:08:56.332Z,78.89
2017-12-02T13:10:06.684Z,79.04
2017-12-02T13:11:16.704Z,79.17
2017-12-02T13:12:27.030Z,79.14
2017-12-02T13:13:37.499Z,79.27
2017-12-02T13:14:47.796Z,79.04
2017-12-02T13:15:58.086Z,79.14
2017-12-02T13:17:08.093Z,79.17
2017-12-02T13:18:18.164Z,78.85
2017-12-02T13:19:27.948Z,79.23
2017-12-02T13:20:37.554Z,79.04
2017-12-02T13:21:47.935Z,79.36
2017-12-02T13:22:58.549Z,79.14
2017-12-02T13:24:09.143Z,79.65
2017-12-02T13:25:19.752Z,79.52
2017-12-02T13:26:30.376Z,79.8
2017-12-02T13:27:40.341Z,79.71
2017-12-02T13:28:50.722Z,79.8
2017-12-02T13:30:01.047Z,79.61
2017-12-02T13:31:11.323Z,80.08
2017-12-02T13:32:21.616Z,79.99
2017-12-02T13:33:31.977Z,80.46
2017-12-02T13:34:41.750Z,80.27
2017-12-02T13:35:51.799Z,80.37
2017-12-02T13:37:01.850Z,80.46
2017-12-02T13:38:12.210Z,80.46
2017-12-02T13:39:21.900Z,80.46
2017-12-02T13:40:32.219Z,80.46
2017-12-02T13:41:42.552Z,80.46
2017-12-02T13:42:52.606Z,80.37
2017-12-02T13:44:02.899Z,80.27
2017-12-02T13:45:13.214Z,80.37
2017-12-02T13:46:23.600Z,80.18
2017-12-02T13:47:33.913Z,80.18
2017-12-02T13:48:44.053Z,80.75
2017-12-02T13:49:54.396Z,81.04
2017-12-02T13:51:04.505Z,80.94
2017-12-02T13:52:14.803Z,80.94
2017-12-02T13:53:24.841Z,80.94
2017-12-02T13:54:35.160Z,80.94
2017-12-02T13:55:45.504Z,80.75
2017-12-02T13:56:55.548Z,80.56
2017-12-02T13:58:05.551Z,80.84
2017-12-02T13:59:15.893Z,81.13
2017-12-02T14:00:25.989Z,80.9
2017-12-02T14:01:36.362Z,80.94
2017-12-02T14:02:46.476Z,80.9
2017-12-02T14:03:56.794Z,81.09
2017-12-02T14:05:06.880Z,81.56
2017-12-02T14:06:17.244Z,81.27
2017-12-02T14:07:27.423Z,81.09
2017-12-02T14:08:37.835Z,81.47
2017-12-02T14:09:47.659Z,81.37
2017-12-02T14:10:57.941Z,81.66
2017-12-02T14:12:07.961Z,82.13
2017-12-02T14:13:18.254Z,81.94
2017-12-02T14:14:28.801Z,82.04
2017-12-02T14:15:38.830Z,82.13
2017-12-02T14:16:49.080Z,81.75
2017-12-02T14:17:59.383Z,81.56
2017-12-02T14:19:09.855Z,81.47
2017-12-02T14:20:19.585Z,81.66
2017-12-02T14:21:29.960Z,81.47
2017-12-02T14:22:40.409Z,81.37
2017-12-02T14:23:50.717Z,81.47
2017-12-02T14:25:01.069Z,81.94
2017-12-02T14:26:11.089Z,82.04
2017-12-02T14:27:21.433Z,82.04
2017-12-02T14:28:31.509Z,82.13
2017-12-02T14:29:41.846Z,81.85
2017-12-02T14:30:52.260Z,82.04
2017-12-02T14:32:02.548Z,81.94
2017-12-02T14:33:13.112Z,81.75
2017-12-02T14:34:23.403Z,81.47
2017-12-02T14:35:33.675Z,81.27
2017-12-02T14:36:43.423Z,81.56
2017-12-02T14:37:53.567Z,81.18
2017-12-02T14:39:03.648Z,81.47
2017-12-02T14:40:14.004Z,81.56
2017-12-02T14:41:24.196Z,81.37
2017-12-02T14:42:34.549Z,82.23
2017-12-02T14:43:44.917Z,81.94
2017-12-02T14:44:55.281Z,81.85
2017-12-02T14:46:05.624Z,82.04
2017-12-02T14:47:15.585Z,81.94
2017-12-02T14:48:25.930Z,82.04
2017-12-02T14:49:36.249Z,81.85
2017-12-02T14:50:46.572Z,82.13
2017-12-02T14:51:56.675Z,82.13
2017-12-02T14:53:06.993Z,82.04
2017-12-02T14:54:17.326Z,82.13
2017-12-02T14:55:27.662Z,82.32
2017-12-02T14:56:37.624Z,82.23
2017-12-02T14:58:19.864Z,82.32
2017-12-02T14:59:29.938Z,82.42
2017-12-02T15:00:40.210Z,82.04
2017-12-02T15:01:50.425Z,81.85
2017-12-02T15:03:00.738Z,82.32
2017-12-02T15:04:10.555Z,82.42
2017-12-02T15:05:20.867Z,81.85
2017-12-02T15:06:31.176Z,81.94
2017-12-02T15:07:41.544Z,81.47
2017-12-02T15:08:51.921Z,81.47
2017-12-02T15:10:01.894Z,81.56
2017-12-02T15:11:12.455Z,81.09
2017-12-02T15:12:22.501Z,81.09
2017-12-02T15:13:32.853Z,81.27